createdAt,value
2022-12-04T00:01:14.383Z,28.33
2022-12-04T00:03:42.270Z,27.20
2022-12-04T00:06:11.813Z,27.98
2022-12-04T00:08:40.386Z,25.38
2022-12-04T00:11:11.591Z,27.80
2022-12-04T00:13:39.917Z,29.80
2022-12-04T00:16:09.611Z,26.13
2022-12-04T00:18:37.502Z,26.77
2022-12-04T00:21:06.168Z,27.10
2022-12-04T00:23:34.796Z,29.60
2022-12-04T00:26:03.258Z,31.13
2022-12-04T00:28:32.903Z,27.33
2022-12-04T00:31:00.794Z,28.67
2022-12-04T00:33:28.576Z,29.10
2022-12-04T00:36:00.346Z,26.85
2022-12-04T00:38:28.822Z,28.85
2022-12-04T00:40:56.833Z,29.37
2022-12-04T00:43:25.182Z,28.73
2022-12-04T00:45:54.388Z,25.38
2022-12-04T00:48:22.308Z,28.55
2022-12-04T00:50:50.225Z,30.48
2022-12-04T00:53:18.109Z,32.38
2022-12-04T00:55:45.894Z,29.45
2022-12-04T00:58:14.189Z,28.17
2022-12-04T01:00:43.605Z,28.92
2022-12-04T01:03:13.007Z,31.83
2022-12-04T01:08:09.647Z,29.58
2022-12-04T01:10:39.596Z,33.30
2022-12-04T01:13:07.455Z,34.20
2022-12-04T01:15:38.904Z,27.48
2022-12-04T01:18:06.785Z,29.17
2022-12-04T01:20:35.898Z,29.42
2022-12-04T01:23:03.795Z,34.22
2022-12-04T01:25:31.595Z,39.63
2022-12-04T01:27:59.425Z,26.90
2022-12-04T01:30:27.166Z,32.85
2022-12-04T01:32:54.985Z,35.45
2022-12-04T01:35:22.780Z,31.48
2022-12-04T01:37:51.881Z,33.17
2022-12-04T01:40:19.638Z,30.60
2022-12-04T01:42:47.405Z,30.17
2022-12-04T01:45:41.165Z,29.58
2022-12-04T01:48:16.026Z,31.85
2022-12-04T01:50:45.150Z,31.20
2022-12-04T01:53:15.071Z,35.25
2022-12-04T01:55:44.639Z,32.28
2022-12-04T01:58:12.590Z,26.88
2022-12-04T02:00:40.853Z,35.88
2022-12-04T02:03:08.819Z,29.98
2022-12-04T02:05:36.689Z,30.50
2022-12-04T02:08:05.878Z,30.85
2022-12-04T02:10:47.999Z,32.20
2022-12-04T02:13:21.779Z,26.30
2022-12-04T02:15:54.728Z,29.40
2022-12-04T02:18:31.187Z,31.67
2022-12-04T02:21:03.350Z,33.55
2022-12-04T02:24:01.246Z,32.15
2022-12-04T02:26:43.556Z,28.25
2022-12-04T02:29:22.702Z,27.52
2022-12-04T02:31:56.680Z,24.40
2022-12-04T02:34:29.229Z,29.75
2022-12-04T02:37:01.763Z,27.13
2022-12-04T02:39:35.642Z,29.13
2022-12-04T02:42:11.400Z,29.83
2022-12-04T02:44:45.349Z,29.25
2022-12-04T02:47:17.320Z,30.23
2022-12-04T02:49:48.049Z,29.27
2022-12-04T02:52:19.538Z,31.02
2022-12-04T02:54:51.486Z,27.70
2022-12-04T02:57:23.067Z,34.40
2022-12-04T02:59:54.856Z,32.13
2022-12-04T03:02:28.483Z,31.50
2022-12-04T03:04:59.089Z,29.25
2022-12-04T03:07:32.117Z,31.60
2022-12-04T03:10:03.789Z,29.55
2022-12-04T03:12:40.949Z,31.33
2022-12-04T03:15:17.333Z,28.55
2022-12-04T03:17:56.254Z,29.63
2022-12-04T03:20:25.073Z,32.33
2022-12-04T03:22:57.616Z,21.85
2022-12-04T03:25:33.150Z,28.20
2022-12-04T03:28:05.061Z,26.23
2022-12-04T03:30:40.355Z,24.13
2022-12-04T03:33:13.164Z,24.95
2022-12-04T03:35:45.960Z,26.17
2022-12-04T03:38:19.673Z,26.83
2022-12-04T03:40:55.199Z,23.33
2022-12-04T03:43:29.822Z,26.08
2022-12-04T03:46:05.186Z,28.73
2022-12-04T03:48:41.964Z,26.17
2022-12-04T03:51:16.161Z,22.65
2022-12-04T03:53:50.576Z,22.83
2022-12-04T03:56:20.058Z,24.58
2022-12-04T03:58:54.880Z,23.83
2022-12-04T04:01:29.251Z,20.38
2022-12-04T04:04:00.946Z,16.83
2022-12-04T04:06:33.530Z,13.82
2022-12-04T04:09:08.698Z,20.90
2022-12-04T04:11:41.439Z,18.73
2022-12-04T04:14:33.199Z,20.90
2022-12-04T04:17:23.627Z,20.75
2022-12-04T04:20:14.084Z,23.13
2022-12-04T04:22:59.511Z,22.15
2022-12-04T04:25:28.920Z,20.15
2022-12-04T04:27:58.797Z,16.35
2022-12-04T04:30:28.403Z,19.73
2022-12-04T04:33:04.968Z,17.98
2022-12-04T04:35:42.660Z,19.50
2022-12-04T04:38:17.552Z,20.10
2022-12-04T04:40:53.380Z,20.98
2022-12-04T04:43:26.094Z,18.40
2022-12-04T04:45:57.706Z,21.25
2022-12-04T04:48:30.366Z,16.63
2022-12-04T04:51:01.175Z,22.38
2022-12-04T04:53:34.618Z,21.17
2022-12-04T04:56:03.520Z,20.75
2022-12-04T04:58:31.341Z,24.98
2022-12-04T05:01:01.597Z,18.45
2022-12-04T05:03:31.290Z,22.02
2022-12-04T05:05:59.081Z,21.25
2022-12-04T05:08:26.928Z,19.17
2022-12-04T05:10:54.685Z,18.77
2022-12-04T05:13:22.984Z,18.10
2022-12-04T05:15:58.343Z,22.08
2022-12-04T05:18:26.467Z,19.98
2022-12-04T05:20:54.998Z,17.25
2022-12-04T05:23:23.203Z,19.27
2022-12-04T05:25:51.086Z,22.55
2022-12-04T05:28:18.847Z,20.00
2022-12-04T05:30:46.780Z,18.38
2022-12-04T05:33:14.679Z,24.63
2022-12-04T05:35:42.448Z,18.05
2022-12-04T05:38:11.599Z,20.42
2022-12-04T05:40:39.389Z,21.77
2022-12-04T05:43:07.129Z,20.63
2022-12-04T05:45:34.892Z,19.65
2022-12-04T05:48:02.637Z,18.35
2022-12-04T05:50:30.371Z,18.10
2022-12-04T05:52:58.384Z,19.60
2022-12-04T05:55:27.506Z,15.73
2022-12-04T05:57:55.243Z,17.23
2022-12-04T06:00:23.215Z,16.48
2022-12-04T06:02:51.010Z,16.48
2022-12-04T06:05:18.975Z,16.83
2022-12-04T06:07:46.781Z,19.60
2022-12-04T06:10:14.688Z,16.70
2022-12-04T06:12:43.791Z,20.63
2022-12-04T06:15:12.131Z,15.88
2022-12-04T06:17:39.886Z,16.77
2022-12-04T06:20:11.685Z,15.75
2022-12-04T06:22:39.890Z,17.00
2022-12-04T06:25:08.949Z,15.90
2022-12-04T06:27:36.671Z,14.18
2022-12-04T06:30:06.937Z,12.32
2022-12-04T06:32:34.738Z,16.23
2022-12-04T06:35:02.943Z,13.25
2022-12-04T06:37:30.868Z,14.90
2022-12-04T06:39:58.925Z,14.95
2022-12-04T06:42:26.967Z,14.98
2022-12-04T06:44:54.772Z,16.80
2022-12-04T06:47:23.851Z,13.68
2022-12-04T06:49:52.300Z,15.52
2022-12-04T06:52:20.076Z,15.13
2022-12-04T06:54:47.865Z,14.00
2022-12-04T06:57:15.605Z,15.60
2022-12-04T06:59:43.424Z,17.98
2022-12-04T07:02:11.887Z,14.05
2022-12-04T07:04:41.285Z,19.70
2022-12-04T07:09:39.807Z,15.18
2022-12-04T07:12:07.964Z,13.80
2022-12-04T07:14:35.803Z,13.98
2022-12-04T07:17:03.624Z,15.18
2022-12-04T07:19:31.483Z,15.13
2022-12-04T07:22:00.605Z,16.13
2022-12-04T07:24:28.387Z,14.90
2022-12-04T07:26:56.189Z,14.07
2022-12-04T07:29:23.959Z,16.58
2022-12-04T07:31:51.815Z,13.68
2022-12-04T07:34:19.690Z,12.55
2022-12-04T07:36:47.507Z,16.70
2022-12-04T07:39:16.665Z,12.43
2022-12-04T07:41:44.412Z,14.25
2022-12-04T07:44:14.877Z,15.77
2022-12-04T07:46:42.672Z,15.95
2022-12-04T07:49:12.741Z,14.60
2022-12-04T07:51:40.537Z,11.48
2022-12-04T07:54:09.315Z,15.88
2022-12-04T07:56:38.448Z,13.90
2022-12-04T07:59:06.200Z,15.55
2022-12-04T08:01:34.285Z,16.13
2022-12-04T08:04:03.261Z,13.70
2022-12-04T08:06:37.213Z,16.38
2022-12-04T08:09:09.832Z,16.83
2022-12-04T08:11:39.781Z,15.10
2022-12-04T08:16:36.608Z,14.23
2022-12-04T08:19:05.425Z,18.02
2022-12-04T08:21:34.529Z,16.17
2022-12-04T08:24:02.938Z,14.80
2022-12-04T08:26:32.268Z,14.30
2022-12-04T08:31:32.928Z,19.45
2022-12-04T08:34:03.282Z,16.90
2022-12-04T08:36:31.102Z,16.38
2022-12-04T08:38:59.322Z,14.02
2022-12-04T08:41:27.993Z,14.75
2022-12-04T08:43:57.767Z,16.10
2022-12-04T08:46:28.326Z,16.33
2022-12-04T08:48:56.868Z,16.40
2022-12-04T08:51:26.334Z,15.57
2022-12-04T08:56:22.552Z,15.90
2022-12-04T08:58:50.506Z,13.05
2022-12-04T09:01:18.777Z,14.65
2022-12-04T09:03:48.078Z,16.40
2022-12-04T09:06:16.776Z,16.90
2022-12-04T09:08:44.616Z,13.13
2022-12-04T09:11:14.475Z,15.05
2022-12-04T09:13:43.225Z,16.45
2022-12-04T09:16:14.291Z,16.23
2022-12-04T09:18:42.251Z,16.02
2022-12-04T09:21:13.141Z,18.23
2022-12-04T09:23:41.173Z,14.93
2022-12-04T09:26:21.592Z,16.35
2022-12-04T09:28:49.865Z,13.55
2022-12-04T09:31:18.700Z,14.55
2022-12-04T09:33:46.741Z,14.82
2022-12-04T09:36:16.951Z,14.55
2022-12-04T09:38:45.809Z,15.02
2022-12-04T09:41:28.722Z,15.10
2022-12-04T09:43:59.550Z,14.75
2022-12-04T09:46:32.499Z,16.73
2022-12-04T09:49:08.776Z,17.15
2022-12-04T09:51:45.190Z,16.30
2022-12-04T09:54:19.135Z,16.90
2022-12-04T09:56:56.491Z,17.70
2022-12-04T09:59:27.758Z,17.20
2022-12-04T10:02:00.868Z,19.83
2022-12-04T10:04:28.813Z,18.98
2022-12-04T10:07:03.296Z,17.42
2022-12-04T10:09:40.202Z,17.83
2022-12-04T10:12:16.038Z,16.40
2022-12-04T10:14:55.323Z,16.67
2022-12-04T10:20:18.347Z,19.42
2022-12-04T10:22:59.625Z,23.23
2022-12-04T10:25:28.073Z,16.58
2022-12-04T10:28:01.020Z,19.15
2022-12-04T10:30:31.980Z,16.85
2022-12-04T10:33:05.499Z,14.50
2022-12-04T10:35:36.315Z,18.33
2022-12-04T10:38:12.259Z,18.35
2022-12-04T10:40:50.503Z,17.40
2022-12-04T10:43:28.648Z,17.90
2022-12-04T10:45:56.458Z,17.05
2022-12-04T10:48:27.538Z,19.05
2022-12-04T10:50:55.331Z,16.10
2022-12-04T10:53:30.886Z,17.70
2022-12-04T10:56:10.360Z,14.38
2022-12-04T10:58:38.420Z,17.85
2022-12-04T11:01:08.173Z,18.92
2022-12-04T11:03:36.544Z,19.13
2022-12-04T11:06:06.529Z,19.77
2022-12-04T11:08:39.605Z,17.67
2022-12-04T11:11:11.251Z,17.48
2022-12-04T11:13:39.941Z,22.15
2022-12-04T11:16:08.657Z,17.20
2022-12-04T11:18:49.102Z,16.50
2022-12-04T11:21:20.048Z,16.98
2022-12-04T11:23:51.268Z,17.55
2022-12-04T11:26:30.064Z,17.25
2022-12-04T11:29:01.799Z,20.98
2022-12-04T11:31:30.524Z,19.40
2022-12-04T11:34:01.319Z,26.23
2022-12-04T11:36:31.707Z,19.55
2022-12-04T11:39:08.952Z,21.60
2022-12-04T11:41:36.759Z,19.23
2022-12-04T11:44:06.808Z,16.65
2022-12-04T11:46:35.504Z,19.95
2022-12-04T11:49:04.048Z,21.33
2022-12-04T11:51:47.870Z,22.07
2022-12-04T11:54:29.074Z,21.38
2022-12-04T11:57:07.892Z,23.90
2022-12-04T11:59:49.628Z,20.90
2022-12-04T12:02:43.379Z,24.27
2022-12-04T12:05:25.150Z,22.10
2022-12-04T12:08:02.456Z,21.85
2022-12-04T12:10:44.239Z,23.05
2022-12-04T12:13:23.354Z,21.08
2022-12-04T12:16:08.299Z,21.08
2022-12-04T12:18:55.345Z,21.88
2022-12-04T12:21:27.050Z,21.63
2022-12-04T12:24:14.636Z,23.60
2022-12-04T12:26:50.535Z,22.00
2022-12-04T12:29:34.882Z,23.90
2022-12-04T12:32:17.102Z,25.88
2022-12-04T12:34:47.236Z,23.77
2022-12-04T12:37:23.608Z,24.25
2022-12-04T12:39:59.708Z,22.73
2022-12-04T12:42:33.758Z,23.75
2022-12-04T12:45:07.564Z,23.42
2022-12-04T12:47:42.232Z,22.15
2022-12-04T12:50:16.190Z,22.20
2022-12-04T12:52:48.747Z,23.65
2022-12-04T12:55:20.985Z,20.45
2022-12-04T12:57:57.781Z,21.20
2022-12-04T13:00:26.537Z,22.17
2022-12-04T13:02:59.389Z,23.00
2022-12-04T13:05:31.359Z,23.77
2022-12-04T13:08:07.205Z,21.00
2022-12-04T13:10:41.209Z,23.45
2022-12-04T13:13:16.571Z,24.35
2022-12-04T13:15:48.824Z,21.10
2022-12-04T13:18:25.271Z,22.02
2022-12-04T13:20:56.132Z,20.35
2022-12-04T13:23:45.962Z,21.52
2022-12-04T13:26:23.930Z,19.80
2022-12-04T13:28:58.740Z,22.70
2022-12-04T13:31:34.524Z,21.00
2022-12-04T13:34:39.037Z,19.45
2022-12-04T13:37:33.868Z,23.00
2022-12-04T13:40:31.998Z,21.10
2022-12-04T13:43:21.613Z,19.38
2022-12-04T13:45:53.362Z,22.40
2022-12-04T13:48:29.897Z,20.25
2022-12-04T13:51:37.167Z,23.02
2022-12-04T13:54:22.754Z,19.27
2022-12-04T13:56:52.522Z,24.75
2022-12-04T13:59:23.868Z,21.17
2022-12-04T14:01:55.584Z,25.20
2022-12-04T14:04:26.390Z,19.85
2022-12-04T14:06:57.114Z,22.10
2022-12-04T14:09:28.397Z,22.45
2022-12-04T14:12:01.404Z,18.92
2022-12-04T14:14:31.398Z,23.27
2022-12-04T14:17:01.095Z,21.80
2022-12-04T14:19:34.537Z,19.63
2022-12-04T14:22:02.933Z,20.35
2022-12-04T14:24:34.967Z,18.83
2022-12-04T14:27:11.522Z,20.25
2022-12-04T14:29:48.621Z,16.65
2022-12-04T14:32:22.481Z,18.83
2022-12-04T14:34:51.299Z,22.58
2022-12-04T14:37:25.376Z,22.20
2022-12-04T14:39:53.998Z,22.15
2022-12-04T14:42:25.399Z,20.30
2022-12-04T14:44:56.756Z,22.58
2022-12-04T14:47:39.853Z,22.27
2022-12-04T14:50:21.668Z,26.83
2022-12-04T14:52:55.637Z,27.52
2022-12-04T14:55:32.881Z,27.30
2022-12-04T14:58:22.076Z,25.90
2022-12-04T15:00:54.287Z,29.13
2022-12-04T15:03:24.789Z,30.80
2022-12-04T15:05:53.725Z,29.85
2022-12-04T15:08:21.744Z,30.73
2022-12-04T15:11:09.100Z,27.40
2022-12-04T15:13:38.420Z,26.23
2022-12-04T15:18:39.767Z,30.30
2022-12-04T15:21:11.491Z,28.77
2022-12-04T15:23:42.416Z,28.55
2022-12-04T15:26:13.875Z,26.17
2022-12-04T15:28:46.352Z,30.15
2022-12-04T15:31:18.385Z,29.27
2022-12-04T15:33:49.768Z,24.92
2022-12-04T15:36:21.037Z,31.15
2022-12-04T15:38:50.413Z,29.00
2022-12-04T15:43:59.867Z,34.25
2022-12-04T15:46:33.375Z,34.75
2022-12-04T15:49:17.749Z,27.80
2022-12-04T15:51:46.854Z,30.38
2022-12-04T15:54:19.548Z,31.50
2022-12-04T15:56:58.483Z,32.67
2022-12-04T15:59:28.122Z,33.03
2022-12-04T16:01:56.534Z,35.13
2022-12-04T16:04:35.384Z,33.92
2022-12-04T16:07:03.364Z,34.42
2022-12-04T16:09:32.150Z,36.03
2022-12-04T16:12:02.217Z,34.60
2022-12-04T16:14:30.429Z,31.30
2022-12-04T16:17:05.919Z,31.58
2022-12-04T16:19:37.367Z,33.58
2022-12-04T16:22:12.043Z,31.50
2022-12-04T16:24:39.888Z,31.27
2022-12-04T16:27:12.536Z,28.02
2022-12-04T16:29:41.050Z,33.13
2022-12-04T16:32:12.280Z,36.63
2022-12-04T16:34:41.564Z,30.73
2022-12-04T16:39:41.563Z,28.65
2022-12-04T16:42:16.167Z,28.88
2022-12-04T16:44:44.051Z,25.88
2022-12-04T16:47:13.341Z,27.90
2022-12-04T16:54:39.693Z,27.08
2022-12-04T16:57:07.550Z,23.50
2022-12-04T16:59:35.685Z,27.00
2022-12-04T17:02:05.362Z,29.63
2022-12-04T17:04:33.205Z,27.30
2022-12-04T17:07:02.321Z,25.40
2022-12-04T17:09:30.168Z,23.42
2022-12-04T17:11:57.953Z,26.95
2022-12-04T17:14:25.739Z,25.75
2022-12-04T17:16:54.890Z,25.50
2022-12-04T17:21:50.532Z,27.48
2022-12-04T17:24:19.654Z,26.65
2022-12-04T17:26:47.408Z,26.52
2022-12-04T17:29:15.170Z,24.95
2022-12-04T17:31:43.032Z,27.08
2022-12-04T17:34:10.864Z,28.48
2022-12-04T17:36:38.663Z,29.05
2022-12-04T17:39:08.010Z,27.52
2022-12-04T17:44:04.868Z,26.40
2022-12-04T17:46:32.763Z,26.95
2022-12-04T17:49:05.453Z,26.52
2022-12-04T17:51:35.746Z,31.45
2022-12-04T17:54:03.581Z,28.05
2022-12-04T17:56:31.448Z,25.52
2022-12-04T17:59:00.570Z,28.30
2022-12-04T18:01:30.403Z,29.33
2022-12-04T18:03:59.742Z,25.88
2022-12-04T18:06:29.141Z,26.38
2022-12-04T18:11:27.877Z,28.70
2022-12-04T18:13:58.082Z,25.45
2022-12-04T18:16:28.368Z,29.08
2022-12-04T18:18:56.813Z,31.23
2022-12-04T18:21:25.131Z,21.80
2022-12-04T18:23:53.529Z,27.23
2022-12-04T18:26:23.094Z,24.87
2022-12-04T18:28:52.795Z,27.25
2022-12-04T18:31:20.814Z,25.45
2022-12-04T18:33:51.525Z,22.17
2022-12-04T18:36:21.435Z,29.67
2022-12-04T18:38:54.799Z,24.60
2022-12-04T18:41:22.716Z,25.17
2022-12-04T18:43:51.151Z,25.10
2022-12-04T18:46:19.669Z,28.60
2022-12-04T18:48:48.695Z,31.20
2022-12-04T18:51:21.544Z,31.23
2022-12-04T18:53:52.339Z,34.95
2022-12-04T18:56:20.227Z,28.77
2022-12-04T18:58:48.570Z,28.40
2022-12-04T19:01:19.325Z,26.02
2022-12-04T19:03:48.134Z,26.05
2022-12-04T19:06:16.556Z,28.58
2022-12-04T19:08:45.774Z,31.03
2022-12-04T19:11:15.380Z,30.55
2022-12-04T19:13:43.711Z,33.83
2022-12-04T19:16:12.955Z,30.80
2022-12-04T19:21:10.191Z,28.55
2022-12-04T19:23:38.324Z,29.92
2022-12-04T19:26:07.591Z,35.97
2022-12-04T19:28:35.517Z,30.98
2022-12-04T19:31:03.440Z,39.35
2022-12-04T19:33:31.238Z,27.48
2022-12-04T19:36:00.893Z,30.88
2022-12-04T19:38:28.959Z,37.63
2022-12-04T19:41:05.075Z,32.90
2022-12-04T19:43:34.283Z,38.42
2022-12-04T19:46:02.423Z,38.25
2022-12-04T19:48:30.252Z,32.58
2022-12-04T19:51:03.243Z,34.83
2022-12-04T19:53:33.060Z,39.28
2022-12-04T19:56:05.543Z,33.53
2022-12-04T19:58:35.764Z,43.13
2022-12-04T20:01:04.268Z,36.33
2022-12-04T20:03:32.767Z,42.00
2022-12-04T20:06:03.337Z,42.27
2022-12-04T20:08:31.294Z,48.05
2022-12-04T20:11:03.734Z,44.08
2022-12-04T20:13:31.576Z,45.83
2022-12-04T20:16:04.080Z,48.30
2022-12-04T20:18:32.456Z,44.58
2022-12-04T20:21:02.065Z,44.83
2022-12-04T20:23:30.137Z,39.47
2022-12-04T20:25:57.954Z,47.22
2022-12-04T20:28:25.776Z,49.33
2022-12-04T20:30:54.360Z,46.22
2022-12-04T20:33:23.595Z,49.67
2022-12-04T20:36:25.489Z,58.97
2022-12-04T20:38:55.272Z,48.13
2022-12-04T20:41:23.368Z,49.05
2022-12-04T20:43:51.494Z,44.63
2022-12-04T20:46:21.849Z,46.15
2022-12-04T20:48:53.347Z,42.90
2022-12-04T20:51:23.308Z,44.75
2022-12-04T20:53:52.246Z,40.80
2022-12-04T20:56:21.879Z,52.72
2022-12-04T20:58:49.694Z,46.33
2022-12-04T21:01:19.508Z,42.25
2022-12-04T21:03:48.324Z,43.05
2022-12-04T21:06:20.049Z,42.45
2022-12-04T21:08:54.022Z,45.88
2022-12-04T21:11:22.012Z,37.90
2022-12-04T21:14:07.412Z,43.20
2022-12-04T21:16:35.599Z,40.75
2022-12-04T21:19:03.717Z,39.58
2022-12-04T21:21:32.877Z,43.38
2022-12-04T21:24:00.769Z,42.65
2022-12-04T21:26:30.971Z,37.33
2022-12-04T21:28:59.446Z,40.08
2022-12-04T21:31:28.810Z,42.73
2022-12-04T21:33:57.963Z,40.00
2022-12-04T21:36:26.684Z,38.72
2022-12-04T21:38:56.190Z,36.83
2022-12-04T21:41:42.076Z,32.10
2022-12-04T21:44:11.394Z,35.85
2022-12-04T21:49:07.263Z,38.92
2022-12-04T21:54:24.672Z,36.83
2022-12-04T21:56:52.477Z,38.20
2022-12-04T21:59:20.401Z,33.40
2022-12-04T22:01:48.300Z,36.67
2022-12-04T22:04:16.429Z,34.85
2022-12-04T22:06:44.418Z,33.03
2022-12-04T22:09:13.214Z,34.42
2022-12-04T22:11:42.818Z,33.15
2022-12-04T22:14:11.703Z,43.50
2022-12-04T22:16:42.457Z,38.63
2022-12-04T22:19:12.050Z,33.30
2022-12-04T22:21:40.430Z,33.53
2022-12-04T22:24:10.398Z,35.20
2022-12-04T22:26:39.104Z,33.70
2022-12-04T22:29:34.304Z,29.27
2022-12-04T22:34:23.903Z,30.83
2022-12-04T22:36:51.669Z,35.88
2022-12-04T22:39:19.430Z,30.85
2022-12-04T22:41:47.195Z,30.38
2022-12-04T22:44:16.273Z,40.80
2022-12-04T22:46:44.169Z,31.98
2022-12-04T22:49:12.016Z,32.58
2022-12-04T22:51:39.785Z,31.67
2022-12-04T22:54:08.114Z,35.88
2022-12-04T22:56:35.976Z,30.42
2022-12-04T22:59:03.806Z,34.72
2022-12-04T23:01:34.444Z,32.60
2022-12-04T23:04:03.331Z,34.13
2022-12-04T23:06:33.239Z,32.60
2022-12-04T23:09:02.686Z,31.80
2022-12-04T23:14:00.943Z,30.27
2022-12-04T23:16:31.552Z,34.35
2022-12-04T23:19:01.012Z,34.97
2022-12-04T23:23:58.016Z,32.97
2022-12-04T23:26:27.642Z,31.67
2022-12-04T23:28:56.102Z,32.45
2022-12-04T23:31:24.663Z,32.60
2022-12-04T23:33:52.580Z,33.17
2022-12-04T23:36:22.098Z,31.55
2022-12-04T23:38:50.585Z,33.58
2022-12-04T23:41:20.638Z,28.97
2022-12-04T23:43:49.448Z,34.03
2022-12-04T23:46:20.526Z,28.48
2022-12-04T23:48:48.729Z,35.03
2022-12-04T23:51:18.056Z,41.42
2022-12-04T23:58:44.668Z,33.38
